createdAt,value
2023-05-16T00:00:53.378Z,11.60
2023-05-16T00:03:25.660Z,11.60
2023-05-16T00:05:58.039Z,11.70
2023-05-16T00:08:29.751Z,11.70
2023-05-16T00:11:01.643Z,11.70
2023-05-16T00:13:33.332Z,11.70
2023-05-16T00:16:05.266Z,11.60
2023-05-16T00:18:37.684Z,11.60
2023-05-16T00:21:09.536Z,11.60
2023-05-16T00:23:41.220Z,11.60
2023-05-16T00:26:12.947Z,11.60
2023-05-16T00:28:44.920Z,11.60
2023-05-16T00:31:16.675Z,11.60
2023-05-16T00:33:48.548Z,11.60
2023-05-16T00:36:23.568Z,11.60
2023-05-16T00:38:56.450Z,11.60
2023-05-16T00:41:28.294Z,11.60
2023-05-16T00:44:00.055Z,11.60
2023-05-16T00:46:31.768Z,11.50
2023-05-16T00:49:04.392Z,11.60
2023-05-16T00:51:37.223Z,11.50
2023-05-16T00:54:09.022Z,11.60
2023-05-16T00:56:47.537Z,11.50
2023-05-16T00:59:20.100Z,11.50
2023-05-16T01:01:52.844Z,11.50
2023-05-16T01:04:25.472Z,11.50
2023-05-16T01:06:57.346Z,11.50
2023-05-16T01:09:29.157Z,11.50
2023-05-16T01:12:03.883Z,11.50
2023-05-16T01:15:00.474Z,11.50
2023-05-16T01:17:54.909Z,11.50
2023-05-16T01:20:44.582Z,11.40
2023-05-16T01:23:44.159Z,11.40
2023-05-16T01:26:22.525Z,11.40
2023-05-16T01:28:55.100Z,11.40
2023-05-16T01:31:26.946Z,11.40
2023-05-16T01:33:58.810Z,11.40
2023-05-16T01:36:54.925Z,11.40
2023-05-16T01:39:44.405Z,11.40
2023-05-16T01:42:17.792Z,11.40
2023-05-16T01:45:31.427Z,11.40
2023-05-16T01:48:11.076Z,11.40
2023-05-16T01:50:47.682Z,11.30
2023-05-16T01:53:23.533Z,11.20
2023-05-16T01:56:01.486Z,11.20
2023-05-16T01:58:34.948Z,11.20
2023-05-16T02:01:07.346Z,11.10
2023-05-16T02:03:39.306Z,11.00
2023-05-16T02:06:11.134Z,11.00
2023-05-16T02:08:42.885Z,11.00
2023-05-16T02:11:14.702Z,11.00
2023-05-16T02:13:46.450Z,11.00
2023-05-16T02:16:18.249Z,10.90
2023-05-16T02:18:50.014Z,10.90
2023-05-16T02:21:21.761Z,10.80
2023-05-16T02:23:53.473Z,10.80
2023-05-16T02:26:25.619Z,10.80
2023-05-16T02:28:57.323Z,10.70
2023-05-16T02:31:30.915Z,10.70
2023-05-16T02:34:03.515Z,10.70
2023-05-16T02:36:36.152Z,10.70
2023-05-16T02:39:09.830Z,10.60
2023-05-16T02:41:41.673Z,10.70
2023-05-16T02:44:13.357Z,10.60
2023-05-16T02:46:45.116Z,10.60
2023-05-16T02:49:17.083Z,10.60
2023-05-16T02:51:48.911Z,10.60
2023-05-16T02:54:20.946Z,10.70
2023-05-16T02:56:52.801Z,10.70
2023-05-16T02:59:24.483Z,10.70
2023-05-16T03:01:56.225Z,10.60
2023-05-16T03:04:28.153Z,10.60
2023-05-16T03:07:00.676Z,10.60
2023-05-16T03:09:32.361Z,10.60
2023-05-16T03:12:04.806Z,10.70
2023-05-16T03:14:37.248Z,10.70
2023-05-16T03:17:09.215Z,10.60
2023-05-16T03:19:40.911Z,10.60
2023-05-16T03:22:13.326Z,10.60
2023-05-16T03:24:45.095Z,10.60
2023-05-16T03:27:17.024Z,10.50
2023-05-16T03:29:48.721Z,10.50
2023-05-16T03:32:20.972Z,10.50
2023-05-16T03:34:52.732Z,10.50
2023-05-16T03:37:24.510Z,10.50
2023-05-16T03:39:56.295Z,10.50
2023-05-16T03:42:28.244Z,10.50
2023-05-16T03:44:59.933Z,10.50
2023-05-16T03:47:31.959Z,10.50
2023-05-16T03:50:04.390Z,10.50
2023-05-16T03:52:36.600Z,10.50
2023-05-16T03:55:09.241Z,10.50
2023-05-16T03:57:44.984Z,10.50
2023-05-16T04:00:17.282Z,10.50
2023-05-16T04:02:49.095Z,10.40
2023-05-16T04:05:21.195Z,10.40
2023-05-16T04:07:52.965Z,10.40
2023-05-16T04:10:24.978Z,10.50
2023-05-16T04:12:56.733Z,10.40
2023-05-16T04:15:28.689Z,10.50
2023-05-16T04:18:00.762Z,10.50
2023-05-16T04:20:33.059Z,10.50
2023-05-16T04:23:04.937Z,10.50
2023-05-16T04:25:36.784Z,10.50
2023-05-16T04:28:08.571Z,10.50
2023-05-16T04:30:40.485Z,10.60
2023-05-16T04:33:12.584Z,10.60
2023-05-16T04:35:44.331Z,10.60
2023-05-16T04:38:16.183Z,10.70
2023-05-16T04:40:50.811Z,10.80
2023-05-16T04:43:22.513Z,10.80
2023-05-16T04:45:54.310Z,10.80
2023-05-16T04:48:26.156Z,10.90
2023-05-16T04:50:57.911Z,11.00
2023-05-16T04:53:29.675Z,11.10
2023-05-16T04:56:01.435Z,11.10
2023-05-16T04:58:33.160Z,11.10
2023-05-16T05:01:05.108Z,11.10
2023-05-16T05:03:37.440Z,11.10
2023-05-16T05:06:09.162Z,11.10
2023-05-16T05:08:41.228Z,11.00
2023-05-16T05:11:12.971Z,11.10
2023-05-16T05:13:44.692Z,11.00
2023-05-16T05:16:16.393Z,11.00
2023-05-16T05:18:48.323Z,11.00
2023-05-16T05:21:22.064Z,11.00
2023-05-16T05:23:53.814Z,11.00
2023-05-16T05:26:26.271Z,11.00
2023-05-16T05:29:05.157Z,11.00
2023-05-16T05:31:37.718Z,11.10
2023-05-16T05:34:09.471Z,11.20
2023-05-16T05:36:41.262Z,11.20
2023-05-16T05:39:13.073Z,11.20
2023-05-16T05:41:45.968Z,11.20
2023-05-16T05:44:17.717Z,11.20
2023-05-16T05:46:49.581Z,11.20
2023-05-16T05:49:22.006Z,11.30
2023-05-16T05:51:53.972Z,11.30
2023-05-16T05:54:26.122Z,11.30
2023-05-16T05:56:58.376Z,11.30
2023-05-16T05:59:30.253Z,11.30
2023-05-16T06:02:02.005Z,11.20
2023-05-16T06:04:33.766Z,11.20
2023-05-16T06:07:05.934Z,11.30
2023-05-16T06:09:37.643Z,11.30
2023-05-16T06:12:09.732Z,11.30
2023-05-16T06:14:41.412Z,11.30
2023-05-16T06:17:13.192Z,11.30
2023-05-16T06:19:45.196Z,11.30
2023-05-16T06:22:16.948Z,11.40
2023-05-16T06:24:48.682Z,11.60
2023-05-16T06:27:20.426Z,11.60
2023-05-16T06:29:52.172Z,11.60
2023-05-16T06:32:23.995Z,11.60
2023-05-16T06:34:55.765Z,11.60
2023-05-16T06:37:27.494Z,11.50
2023-05-16T06:39:59.267Z,11.50
2023-05-16T06:42:31.264Z,11.50
2023-05-16T06:45:03.164Z,11.50
2023-05-16T06:47:34.962Z,11.60
2023-05-16T06:50:07.625Z,11.70
2023-05-16T06:52:39.453Z,11.80
2023-05-16T06:55:12.634Z,11.90
2023-05-16T06:57:44.470Z,11.90
2023-05-16T07:00:16.723Z,11.90
2023-05-16T07:02:48.502Z,12.00
2023-05-16T07:05:20.335Z,12.00
2023-05-16T07:07:52.121Z,11.90
2023-05-16T07:10:24.034Z,11.90
2023-05-16T07:12:56.538Z,11.90
2023-05-16T07:15:31.351Z,11.90
2023-05-16T07:18:03.224Z,11.90
2023-05-16T07:20:35.074Z,11.80
2023-05-16T07:23:06.826Z,11.70
2023-05-16T07:25:38.930Z,11.70
2023-05-16T07:28:10.985Z,11.80
2023-05-16T07:30:42.754Z,11.80
2023-05-16T07:33:14.586Z,11.90
2023-05-16T07:35:46.450Z,12.10
2023-05-16T07:38:18.260Z,12.20
2023-05-16T07:40:50.127Z,12.10
2023-05-16T07:43:21.897Z,11.90
2023-05-16T07:45:53.916Z,11.90
2023-05-16T07:48:25.752Z,11.80
2023-05-16T07:50:57.821Z,11.80
2023-05-16T07:53:29.595Z,12.00
2023-05-16T07:56:01.385Z,12.30
2023-05-16T07:58:33.193Z,12.50
2023-05-16T08:01:05.001Z,12.70
2023-05-16T08:03:37.514Z,12.80
2023-05-16T08:06:09.632Z,12.70
2023-05-16T08:08:41.489Z,12.50
2023-05-16T08:11:13.317Z,12.30
2023-05-16T08:13:45.168Z,12.20
2023-05-16T08:16:17.148Z,12.10
2023-05-16T08:18:49.006Z,12.30
2023-05-16T08:21:20.893Z,12.40
2023-05-16T08:23:52.675Z,12.50
2023-05-16T08:26:25.055Z,12.60
2023-05-16T08:28:56.790Z,12.60
2023-05-16T08:31:28.623Z,12.70
2023-05-16T08:34:06.467Z,12.60
2023-05-16T08:36:38.954Z,12.60
2023-05-16T08:39:11.665Z,12.30
2023-05-16T08:41:43.744Z,12.10
2023-05-16T08:44:21.380Z,11.90
2023-05-16T08:46:54.218Z,11.90
2023-05-16T08:49:29.236Z,11.70
2023-05-16T08:52:02.123Z,11.60
2023-05-16T08:54:34.348Z,11.50
2023-05-16T08:57:06.898Z,11.40
2023-05-16T08:59:38.656Z,11.40
2023-05-16T09:02:10.439Z,11.30
2023-05-16T09:04:45.037Z,11.40
2023-05-16T09:07:17.536Z,11.50
2023-05-16T09:09:49.429Z,11.40
2023-05-16T09:12:22.200Z,11.50
2023-05-16T09:14:53.962Z,11.50
2023-05-16T09:17:36.284Z,11.50
2023-05-16T09:20:19.772Z,11.60
2023-05-16T09:22:57.298Z,11.60
2023-05-16T09:25:32.027Z,11.60
2023-05-16T09:28:04.269Z,11.70
2023-05-16T09:30:37.114Z,11.80
2023-05-16T09:33:09.083Z,11.80
2023-05-16T09:35:45.369Z,11.80
2023-05-16T09:38:18.165Z,11.90
2023-05-16T09:40:51.489Z,11.80
2023-05-16T09:43:27.134Z,11.70
2023-05-16T09:45:59.974Z,11.80
2023-05-16T09:48:33.323Z,11.90
2023-05-16T09:51:08.923Z,11.90
2023-05-16T09:53:41.979Z,12.20
2023-05-16T09:56:15.242Z,12.60
2023-05-16T09:58:47.792Z,12.70
2023-05-16T10:01:20.292Z,13.10
2023-05-16T10:03:52.483Z,14.00
2023-05-16T10:06:25.757Z,14.60
2023-05-16T10:08:59.724Z,14.90
2023-05-16T10:11:33.058Z,14.70
2023-05-16T10:14:07.913Z,14.20
2023-05-16T10:16:43.817Z,14.00
2023-05-16T10:19:21.639Z,13.70
2023-05-16T10:21:59.675Z,13.50
2023-05-16T10:24:52.222Z,13.30
2023-05-16T10:27:25.636Z,13.00
2023-05-16T10:29:58.689Z,12.70
2023-05-16T10:32:31.974Z,12.50
2023-05-16T10:35:07.990Z,12.40
2023-05-16T10:37:40.479Z,12.30
2023-05-16T10:40:13.064Z,12.10
2023-05-16T10:42:57.379Z,12.00
2023-05-16T10:45:29.772Z,11.90
2023-05-16T10:48:04.828Z,11.80
2023-05-16T10:50:45.933Z,11.70
2023-05-16T10:53:29.585Z,11.70
2023-05-16T10:56:01.482Z,11.70
2023-05-16T10:58:36.356Z,11.70
2023-05-16T11:01:28.230Z,11.80
2023-05-16T11:04:03.099Z,11.80
2023-05-16T11:06:41.073Z,11.90
2023-05-16T11:09:13.724Z,11.90
2023-05-16T11:11:59.973Z,11.90
2023-05-16T11:14:34.412Z,11.80
2023-05-16T11:17:16.634Z,11.80
2023-05-16T11:19:59.089Z,11.80
2023-05-16T11:22:41.157Z,11.60
2023-05-16T11:25:12.895Z,11.50
2023-05-16T11:27:46.661Z,11.40
2023-05-16T11:30:21.992Z,11.30
2023-05-16T11:32:55.845Z,11.40
2023-05-16T11:35:28.949Z,11.20
2023-05-16T11:38:01.010Z,11.20
2023-05-16T11:40:32.836Z,11.10
2023-05-16T11:43:07.199Z,11.10
2023-05-16T11:45:39.322Z,10.90
2023-05-16T11:48:14.437Z,10.90
2023-05-16T11:50:50.956Z,10.80
2023-05-16T11:53:23.372Z,10.80
2023-05-16T11:55:56.075Z,10.80
2023-05-16T11:58:28.849Z,10.70
2023-05-16T12:01:04.392Z,10.80
2023-05-16T12:03:37.091Z,10.80
2023-05-16T12:06:09.632Z,10.80
2023-05-16T12:08:50.559Z,10.80
2023-05-16T12:11:23.826Z,10.70
2023-05-16T12:13:55.913Z,10.70
2023-05-16T12:16:27.879Z,10.80
2023-05-16T12:19:01.966Z,10.80
2023-05-16T12:21:34.039Z,10.90
2023-05-16T12:24:09.246Z,10.90
2023-05-16T12:26:43.478Z,10.90
2023-05-16T12:29:15.238Z,10.90
2023-05-16T12:31:47.586Z,10.90
2023-05-16T12:34:21.487Z,10.90
2023-05-16T12:36:54.410Z,11.00
2023-05-16T12:39:26.294Z,11.10
2023-05-16T12:42:06.368Z,11.20
2023-05-16T12:44:38.144Z,11.30
2023-05-16T12:47:13.503Z,11.30
2023-05-16T12:49:48.732Z,11.40
2023-05-16T12:52:21.769Z,11.50
2023-05-16T12:54:53.702Z,11.40
2023-05-16T12:57:25.454Z,11.30
2023-05-16T12:59:57.240Z,11.40
2023-05-16T13:02:29.136Z,11.40
2023-05-16T13:05:00.977Z,11.40
2023-05-16T13:07:32.740Z,11.40
2023-05-16T13:10:04.795Z,11.40
2023-05-16T13:12:40.804Z,11.20
2023-05-16T13:15:13.055Z,11.20
2023-05-16T13:17:44.948Z,11.00
2023-05-16T13:20:17.353Z,10.90
2023-05-16T13:22:49.224Z,10.80
2023-05-16T13:25:21.082Z,10.80
2023-05-16T13:27:52.838Z,10.70
2023-05-16T13:30:24.831Z,10.70
2023-05-16T13:32:56.923Z,10.80
2023-05-16T13:35:28.904Z,10.80
2023-05-16T13:38:00.780Z,10.70
2023-05-16T13:40:32.873Z,10.60
2023-05-16T13:43:05.385Z,10.60
2023-05-16T13:45:37.681Z,10.50
2023-05-16T13:48:09.702Z,10.50
2023-05-16T13:50:44.253Z,10.40
2023-05-16T13:53:16.521Z,10.40
2023-05-16T13:55:48.233Z,10.50
2023-05-16T13:58:20.027Z,10.50
2023-05-16T14:00:52.030Z,10.40
2023-05-16T14:03:24.306Z,10.40
2023-05-16T14:05:58.315Z,10.40
2023-05-16T14:08:30.313Z,10.40
2023-05-16T14:11:02.564Z,10.40
2023-05-16T14:13:34.385Z,10.40
2023-05-16T14:16:07.437Z,10.40
2023-05-16T14:18:39.234Z,10.40
2023-05-16T14:21:11.131Z,10.50
2023-05-16T14:23:43.167Z,10.50
2023-05-16T14:26:15.332Z,10.60
2023-05-16T14:28:47.045Z,10.60
2023-05-16T14:31:19.129Z,10.70
2023-05-16T14:33:51.388Z,10.60
2023-05-16T14:36:23.129Z,10.60
2023-05-16T14:38:54.938Z,10.70
2023-05-16T14:41:26.763Z,10.80
2023-05-16T14:43:58.473Z,10.90
2023-05-16T14:46:30.358Z,10.80
2023-05-16T14:49:02.181Z,11.00
2023-05-16T14:51:33.944Z,11.00
2023-05-16T14:54:05.853Z,11.00
2023-05-16T14:56:37.636Z,11.10
2023-05-16T14:59:09.377Z,11.00
2023-05-16T15:01:41.348Z,10.90
2023-05-16T15:04:13.118Z,10.90
2023-05-16T15:06:44.914Z,11.00
2023-05-16T15:09:17.606Z,11.10
2023-05-16T15:11:49.330Z,11.00
2023-05-16T15:14:21.061Z,11.10
2023-05-16T15:16:52.888Z,11.10
2023-05-16T15:19:25.461Z,11.20
2023-05-16T15:21:57.320Z,11.10
2023-05-16T15:24:29.138Z,11.00
2023-05-16T15:27:02.056Z,11.10
2023-05-16T15:29:33.885Z,11.20
2023-05-16T15:32:06.600Z,11.30
2023-05-16T15:34:38.452Z,11.30
2023-05-16T15:37:10.386Z,11.30
2023-05-16T15:39:42.426Z,11.50
2023-05-16T15:42:14.600Z,11.60
2023-05-16T15:44:46.609Z,11.60
2023-05-16T15:47:18.375Z,11.70
2023-05-16T15:49:50.412Z,11.80
2023-05-16T15:52:22.994Z,11.80
2023-05-16T15:54:56.055Z,11.80
2023-05-16T15:57:27.904Z,11.80
2023-05-16T15:59:59.732Z,11.80
2023-05-16T16:02:31.517Z,11.90
2023-05-16T16:05:03.441Z,11.70
2023-05-16T16:07:35.433Z,11.70
2023-05-16T16:10:07.908Z,11.60
2023-05-16T16:12:39.981Z,11.60
2023-05-16T16:15:11.959Z,11.70
2023-05-16T16:17:43.730Z,11.90
2023-05-16T16:20:15.679Z,11.90
2023-05-16T16:22:47.660Z,11.90
2023-05-16T16:25:19.639Z,12.10
2023-05-16T16:27:51.813Z,11.90
2023-05-16T16:30:23.596Z,11.80
2023-05-16T16:32:55.620Z,11.60
2023-05-16T16:35:27.650Z,11.60
2023-05-16T16:38:07.487Z,11.40
2023-05-16T16:40:39.257Z,11.30
2023-05-16T16:43:12.090Z,11.30
2023-05-16T16:45:43.850Z,11.30
2023-05-16T16:48:15.606Z,11.30
2023-05-16T16:50:47.352Z,11.30
2023-05-16T16:53:19.074Z,11.30
2023-05-16T16:55:50.766Z,11.30
2023-05-16T16:58:22.589Z,11.40
2023-05-16T17:00:54.370Z,11.40
2023-05-16T17:03:26.348Z,11.40
2023-05-16T17:05:58.815Z,11.40
2023-05-16T17:08:30.938Z,11.30
2023-05-16T17:11:05.300Z,11.30
2023-05-16T17:13:37.657Z,11.30
2023-05-16T17:16:10.641Z,11.30
2023-05-16T17:18:42.906Z,11.20
2023-05-16T17:21:14.762Z,11.30
2023-05-16T17:23:46.521Z,11.30
2023-05-16T17:26:18.335Z,11.30
2023-05-16T17:28:50.145Z,11.30
2023-05-16T17:31:22.070Z,11.30
2023-05-16T17:33:53.930Z,11.20
2023-05-16T17:36:25.800Z,11.20
2023-05-16T17:38:59.255Z,11.20
2023-05-16T17:41:31.152Z,11.10
2023-05-16T17:44:03.395Z,11.20
2023-05-16T17:46:38.258Z,11.20
2023-05-16T17:49:10.603Z,11.20
2023-05-16T17:51:46.425Z,11.20
2023-05-16T17:54:19.319Z,11.20
2023-05-16T17:56:51.177Z,11.20
2023-05-16T17:59:22.969Z,11.10
2023-05-16T18:01:57.380Z,11.10
2023-05-16T18:04:29.233Z,11.10
2023-05-16T18:07:01.516Z,11.10
2023-05-16T18:09:33.842Z,11.00
2023-05-16T18:12:06.209Z,11.10
2023-05-16T18:14:37.993Z,11.10
2023-05-16T18:17:09.846Z,11.10
2023-05-16T18:19:41.770Z,11.00
2023-05-16T18:22:13.912Z,11.00
2023-05-16T18:24:45.918Z,11.00
2023-05-16T18:27:17.663Z,10.90
2023-05-16T18:29:49.446Z,10.80
2023-05-16T18:32:21.295Z,10.80
2023-05-16T18:34:53.141Z,10.70
2023-05-16T18:37:25.010Z,10.60
2023-05-16T18:39:56.784Z,10.60
2023-05-16T18:42:28.878Z,10.50
2023-05-16T18:45:00.712Z,10.40
2023-05-16T18:47:32.554Z,10.30
2023-05-16T18:50:04.662Z,10.20
2023-05-16T18:52:36.918Z,10.10
2023-05-16T18:55:08.981Z,10.00
2023-05-16T18:57:41.135Z,10.00
2023-05-16T19:00:13.297Z,9.90
2023-05-16T19:02:45.068Z,9.90
2023-05-16T19:05:17.179Z,9.80
2023-05-16T19:07:49.067Z,9.80
2023-05-16T19:10:20.948Z,9.70
2023-05-16T19:12:52.753Z,9.70
2023-05-16T19:15:24.563Z,9.70
2023-05-16T19:17:56.443Z,9.70
2023-05-16T19:20:28.627Z,9.60
2023-05-16T19:23:01.328Z,9.60
2023-05-16T19:25:33.411Z,9.60
2023-05-16T19:28:05.571Z,9.50
2023-05-16T19:30:39.319Z,9.50
2023-05-16T19:33:11.323Z,9.40
2023-05-16T19:35:43.215Z,9.40
2023-05-16T19:38:14.959Z,9.40
2023-05-16T19:40:47.002Z,9.40
2023-05-16T19:43:19.002Z,9.30
2023-05-16T19:45:50.916Z,9.30
2023-05-16T19:48:22.822Z,9.30
2023-05-16T19:50:54.693Z,9.30
2023-05-16T19:53:26.719Z,9.30
2023-05-16T19:55:58.468Z,9.30
2023-05-16T19:58:30.388Z,9.20
2023-05-16T20:01:02.163Z,9.20
2023-05-16T20:03:34.030Z,9.20
2023-05-16T20:06:06.510Z,9.10
2023-05-16T20:08:38.237Z,9.10
2023-05-16T20:11:10.033Z,9.10
2023-05-16T20:13:41.835Z,9.10
2023-05-16T20:16:13.775Z,9.00
2023-05-16T20:18:46.737Z,9.00
2023-05-16T20:21:18.667Z,9.00
2023-05-16T20:23:50.517Z,9.00
2023-05-16T20:26:22.335Z,9.00
2023-05-16T20:28:54.091Z,9.00
2023-05-16T20:31:25.996Z,9.00
2023-05-16T20:33:57.852Z,8.90
2023-05-16T20:36:29.692Z,8.90
2023-05-16T20:39:01.512Z,8.90
2023-05-16T20:41:33.279Z,8.80
2023-05-16T20:44:06.677Z,8.80
2023-05-16T20:46:40.404Z,8.80
2023-05-16T20:49:12.327Z,8.80
2023-05-16T20:51:44.136Z,8.70
2023-05-16T20:54:17.050Z,8.70
2023-05-16T20:56:48.804Z,8.70
2023-05-16T20:59:20.631Z,8.60
2023-05-16T21:01:52.665Z,8.70
2023-05-16T21:04:24.763Z,8.70
2023-05-16T21:06:56.565Z,8.60
2023-05-16T21:09:28.278Z,8.60
2023-05-16T21:12:00.300Z,8.60
2023-05-16T21:14:32.102Z,8.60
2023-05-16T21:17:03.970Z,8.60
2023-05-16T21:19:37.692Z,8.50
2023-05-16T21:22:09.517Z,8.50
2023-05-16T21:24:41.686Z,8.50
2023-05-16T21:27:13.461Z,8.40
2023-05-16T21:29:45.265Z,8.40
2023-05-16T21:32:17.017Z,8.40
2023-05-16T21:34:49.053Z,8.30
2023-05-16T21:37:21.570Z,8.30
2023-05-16T21:39:53.390Z,8.30
2023-05-16T21:42:25.225Z,8.20
2023-05-16T21:44:56.981Z,8.20
2023-05-16T21:47:28.745Z,8.20
2023-05-16T21:50:00.518Z,8.10
2023-05-16T21:52:32.278Z,8.10
2023-05-16T21:55:05.789Z,8.10
2023-05-16T21:57:37.788Z,8.10
2023-05-16T22:00:10.259Z,8.10
2023-05-16T22:02:42.087Z,8.10
2023-05-16T22:05:14.627Z,8.10
2023-05-16T22:07:46.701Z,8.10
2023-05-16T22:10:18.758Z,8.10
2023-05-16T22:12:50.552Z,8.10
2023-05-16T22:15:22.357Z,8.00
2023-05-16T22:17:54.355Z,8.00
2023-05-16T22:20:26.803Z,8.10
2023-05-16T22:22:58.632Z,8.00
2023-05-16T22:25:30.729Z,8.00
2023-05-16T22:28:02.552Z,7.90
2023-05-16T22:30:34.302Z,7.90
2023-05-16T22:33:06.347Z,7.90
2023-05-16T22:35:38.142Z,7.80
2023-05-16T22:38:09.872Z,7.80
2023-05-16T22:40:41.632Z,7.70
2023-05-16T22:43:13.459Z,7.70
2023-05-16T22:45:45.525Z,7.70
2023-05-16T22:48:17.375Z,7.70
2023-05-16T22:50:49.208Z,7.70
2023-05-16T22:53:21.013Z,7.70
2023-05-16T22:55:52.759Z,7.60
2023-05-16T22:58:24.577Z,7.60
2023-05-16T23:00:57.994Z,7.50
2023-05-16T23:03:29.936Z,7.50
2023-05-16T23:06:01.816Z,7.50
2023-05-16T23:08:33.661Z,7.50
2023-05-16T23:11:05.508Z,7.50
2023-05-16T23:13:37.323Z,7.50
2023-05-16T23:16:09.077Z,7.50
2023-05-16T23:18:41.105Z,7.50
2023-05-16T23:21:12.936Z,7.40
2023-05-16T23:23:44.693Z,7.30
2023-05-16T23:26:16.509Z,7.30
2023-05-16T23:28:48.272Z,7.30
2023-05-16T23:31:20.038Z,7.30
2023-05-16T23:33:51.883Z,7.20
2023-05-16T23:36:23.620Z,7.20
2023-05-16T23:38:55.372Z,7.20
2023-05-16T23:41:27.094Z,7.20
2023-05-16T23:43:58.817Z,7.10
2023-05-16T23:46:30.513Z,7.10
2023-05-16T23:49:02.312Z,7.10
2023-05-16T23:51:52.224Z,7.10
2023-05-16T23:54:26.391Z,7.10
2023-05-16T23:56:58.146Z,7.00
2023-05-16T23:59:29.930Z,6.90
